地図

経路データ

SID SEASON NUMBER BASIN SUBBASIN NAME ISO_TIME NATURE LAT LON WMO_WIND WMO_PRES WMO_AGENCY TRACK_TYPE DIST2LAND LANDFALL IFLAG USA_AGENCY USA_ATCF_ID USA_LAT USA_LON USA_RECORD USA_STATUS USA_WIND USA_PRES USA_SSHS USA_R34_NE USA_R34_SE USA_R34_SW USA_R34_NW USA_R50_NE USA_R50_SE USA_R50_SW USA_R50_NW USA_R64_NE USA_R64_SE USA_R64_SW USA_R64_NW USA_POCI USA_ROCI USA_RMW USA_EYE TOKYO_LAT TOKYO_LON TOKYO_GRADE TOKYO_WIND TOKYO_PRES TOKYO_R50_DIR TOKYO_R50_LONG TOKYO_R50_SHORT TOKYO_R30_DIR TOKYO_R30_LONG TOKYO_R30_SHORT TOKYO_LAND CMA_LAT CMA_LON CMA_CAT CMA_WIND CMA_PRES HKO_LAT HKO_LON HKO_CAT HKO_WIND HKO_PRES NEWDELHI_LAT NEWDELHI_LON NEWDELHI_GRADE NEWDELHI_WIND NEWDELHI_PRES NEWDELHI_CI NEWDELHI_DP NEWDELHI_POCI REUNION_LAT REUNION_LON REUNION_TYPE REUNION_WIND REUNION_PRES REUNION_TNUM REUNION_CI REUNION_RMW REUNION_R34_NE REUNION_R34_SE REUNION_R34_SW REUNION_R34_NW REUNION_R50_NE REUNION_R50_SE REUNION_R50_SW REUNION_R50_NW REUNION_R64_NE REUNION_R64_SE REUNION_R64_SW REUNION_R64_NW BOM_LAT BOM_LON BOM_TYPE BOM_WIND BOM_PRES BOM_TNUM BOM_CI BOM_RMW BOM_R34_NE BOM_R34_SE BOM_R34_SW BOM_R34_NW BOM_R50_NE BOM_R50_SE BOM_R50_SW BOM_R50_NW BOM_R64_NE BOM_R64_SE BOM_R64_SW BOM_R64_NW BOM_ROCI BOM_POCI BOM_EYE BOM_POS_METHOD BOM_PRES_METHOD NADI_LAT NADI_LON NADI_CAT NADI_WIND NADI_PRES WELLINGTON_LAT WELLINGTON_LON WELLINGTON_WIND WELLINGTON_PRES DS824_LAT DS824_LON DS824_STAGE DS824_WIND DS824_PRES TD9636_LAT TD9636_LON TD9636_STAGE TD9636_WIND TD9636_PRES TD9635_LAT TD9635_LON TD9635_WIND TD9635_PRES TD9635_ROCI NEUMANN_LAT NEUMANN_LON NEUMANN_CLASS NEUMANN_WIND NEUMANN_PRES MLC_LAT MLC_LON MLC_CLASS MLC_WIND MLC_PRES USA_GUST BOM_GUST BOM_GUST_PER REUNION_GUST REUNION_GUST_PER USA_SEAHGT USA_SEARAD_NE USA_SEARAD_SE USA_SEARAD_SW USA_SEARAD_NW STORM_SPEED STORM_DIR
1948069S15125 1948 21 SI WA NOT_NAMED 1948-03-08 17:30:00 NR -14.8000 125.200 1004 bom main 0 0 ______O_______ -1 -14.8000 125.200 1004 10 239
1948069S15125 1948 21 SI WA NOT_NAMED 1948-03-08 18:00:00 NR -14.8406 125.126 main 10 10 ______P_______ -1 -14.8406 125.126 10 240
1948069S15125 1948 21 SI WA NOT_NAMED 1948-03-08 21:00:00 NR -15.0858 124.684 main 15 15 ______P_______ -1 -15.0858 124.684 11 252
1948069S15125 1948 21 SI WA NOT_NAMED 1948-03-08 23:00:00 NR -15.1224 124.251 main 54 59 ______P___O___ -1 -15.2530 124.389 -14.6000 123.700 7 14 271
1948069S15125 1948 21 SI WA NOT_NAMED 1948-03-09 00:00:00 TS -15.0678 123.966 main 70 75 O_____P__OP___ jtwc_sh SH161948 -14.8000 123.700 -1 -15.3387 124.241 -14.8000 123.700 TC -14.7937 123.684 7 10 236
1948069S15125 1948 21 SI WA NOT_NAMED 1948-03-09 03:00:00 TS -15.4780 123.708 main 75 30 P_____P__PP___ SH161948 -15.4300 123.682 -1 -15.6066 123.796 -15.4300 123.682 TC -15.3705 123.624 7 10 207
1948069S15125 1948 21 SI WA NOT_NAMED 1948-03-09 06:00:00 TS -15.9510 123.507 main 30 24 O_____P__OP___ jtwc_sh SH161948 -16.0000 123.600 -1 -15.8970 123.349 -16.0000 123.600 TC -15.9317 123.526 7 10 202
1948069S15125 1948 21 SI WA NOT_NAMED 1948-03-09 07:00:00 TS -16.1119 123.444 bom main 30 21 P_____O__PP___ SH161948 -16.1671 123.547 -1 -16.0000 123.200 -16.1671 123.547 TC -16.1132 123.480 7 10 207
1948069S15125 1948 21 SI WA NOT_NAMED 1948-03-09 09:00:00 TS -16.4070 123.267 main 30 0 P_____P__PP___ SH161948 -16.4724 123.402 -1 -16.2176 122.901 -16.4724 123.402 TC -16.4654 123.361 7 10 213
1948069S15125 1948 21 SI WA NOT_NAMED 1948-03-09 11:00:00 TS -16.6926 123.057 main 0 0 P_____P__PO___ SH161948 -16.7578 123.211 -1 -16.4546 122.605 -16.7578 123.211 TC -16.8000 123.200 7 11 216
1948069S15125 1948 21 SI WA NOT_NAMED 1948-03-09 12:00:00 TS -16.8354 122.940 main 0 0 O_____P__OP___ jtwc_sh SH161948 -16.9000 123.100 -1 -16.5820 122.458 -16.9000 123.100 TC -16.9598 123.101 7 11 219
1948069S15125 1948 21 SI WA NOT_NAMED 1948-03-09 15:00:00 TS -17.2837 122.555 main 0 0 P_____P__PP___ SH161948 -17.3575 122.723 -1 -17.0075 122.030 -17.3575 122.723 TC -17.4121 122.743 7 12 220
1948069S15125 1948 21 SI WA NOT_NAMED 1948-03-09 18:00:00 TS -17.7362 122.138 main 10 10 O_____P__OP___ jtwc_sh SH161948 -17.8000 122.300 -1 -17.5115 121.627 -17.8000 122.300 TC -17.8333 122.324 7 12 221
1948069S15125 1948 21 SI WA NOT_NAMED 1948-03-09 19:00:00 TS -17.8867 122.001 986 bom main 21 21 P_____O__PP___ SH161948 -17.9390 122.164 -1 -17.7000 121.500 986 -17.9390 122.164 TC -17.9689 122.178 7 12 220
1948069S15125 1948 21 SI WA NOT_NAMED 1948-03-09 21:00:00 TS -18.1960 121.730 main 30 23 P_____P__PP___ SH161948 -18.2075 121.892 -1 -18.1333 121.252 985 -18.2075 121.892 TC -18.2357 121.884 7 12 219
1948069S15125 1948 21 SI WA NOT_NAMED 1948-03-09 23:00:00 TS -18.5052 121.469 main 23 31 P_____P__PO___ SH161948 -18.4693 121.628 -1 -18.5824 121.019 985 -18.4693 121.628 TC -18.5000 121.600 7 11 221
1948069S15125 1948 21 SI WA NOT_NAMED 1948-03-10 00:00:00 TS -18.5964 121.362 main 31 42 O_____P__OP___ jtwc_sh SH161948 -18.6000 121.500 -1 -18.7981 120.908 985 -18.6000 121.500 TC -18.6365 121.481 7 8 226
1948069S15125 1948 21 SI WA NOT_NAMED 1948-03-10 01:00:00 TS -18.6984 121.258 985 bom main 43 43 P_____O__PP___ SH161948 -18.7333 121.378 -1 -19.0000 120.800 985 4 -18.7333 121.378 TC -18.7720 121.365 7 9 220
1948069S15125 1948 21 SI WA NOT_NAMED 1948-03-10 03:00:00 TS -18.9570 121.041 main 46 30 P_____P__PP___ SH161948 -18.9999 121.142 -1 -19.3407 120.589 -18.9999 121.142 TC -19.0405 121.138 7 10 217
1948069S15125 1948 21 SI WA NOT_NAMED 1948-03-10 06:00:00 TS -19.3678 120.720 bom main 30 10 O_____O__OP___ jtwc_sh SH161948 -19.4000 120.800 -1 -19.8000 120.300 -19.4000 120.800 TC -19.4391 120.801 7 10 215
1948069S15125 1948 21 SI WA NOT_NAMED 1948-03-10 09:00:00 TS -19.8051 120.404 main 10 0 P_____P__PP___ SH161948 -19.7998 120.472 -1 -20.2741 120.041 -19.7998 120.472 TC -19.8355 120.450 7 11 214
1948069S15125 1948 21 SI WA NOT_NAMED 1948-03-10 11:00:00 TS -20.0956 120.188 main 0 0 P_____P__PO___ SH161948 -20.0665 120.234 -1 -20.6053 119.881 -20.0665 120.234 TC -20.1000 120.200 7 11 216
1948069S15125 1948 21 SI WA NOT_NAMED 1948-03-10 12:00:00 TS -20.2451 120.071 main 0 0 O_____P__OP___ jtwc_sh SH161948 -20.2000 120.100 -1 -20.7745 119.804 -20.2000 120.100 TC -20.2508 120.049 7 11 219
1948069S15125 1948 21 SI WA NOT_NAMED 1948-03-10 15:00:00 TS -20.6672 119.688 main 0 0 P_____P__PP___ SH161948 -20.6002 119.608 -1 -21.2934 119.583 -20.6002 119.608 TC -20.7102 119.568 7 11 221
1948069S15125 1948 21 SI WA NOT_NAMED 1948-03-10 18:00:00 TS -21.0765 119.286 main 0 0 O_____P__OP___ jtwc_sh SH161948 -21.0000 119.100 -1 -21.8227 119.370 -21.0000 119.100 TC -21.1459 119.083 7 11 224
1948069S15125 1948 21 SI WA NOT_NAMED 1948-03-10 19:00:00 TS -21.1838 119.149 998 bom main 0 0 P_____O__PP___ SH161948 -21.1490 118.942 -1 -22.0000 119.300 998 -21.1490 118.942 TC -21.2782 118.929 7 11 229
1948069S15125 1948 21 SI WA NOT_NAMED 1948-03-10 21:00:00 TS -21.4327 118.838 main 0 0 P________PP___ SH161948 -21.4450 118.648 -1 -21.4450 118.648 TC -21.5138 118.643 7 11 228
1948069S15125 1948 21 SI WA NOT_NAMED 1948-03-10 23:00:00 TS -21.6906 118.552 main 0 0 P________PO___ SH161948 -21.7009 118.400 -1 -21.7009 118.400 TC -21.7000 118.400 7 11 230
1948069S15125 1948 21 SI WA NOT_NAMED 1948-03-11 00:00:00 TS -21.7891 118.388 main 0 0 O________OP___ jtwc_sh SH161948 -21.8000 118.300 -1 -21.8000 118.300 TC -21.7645 118.312 7 7 239
1948069S15125 1948 21 SI WA NOT_NAMED 1948-03-11 03:00:00 TS -21.9388 118.113 main 0 0 P________PP___ SH161948 -21.9673 118.112 -1 -21.9673 118.112 TC -21.8817 118.114 7 4 243
1948069S15125 1948 21 SI WA NOT_NAMED 1948-03-11 06:00:00 TS -21.9721 117.995 main 0 0 O________OP___ jtwc_sh SH161948 -22.0000 118.000 -1 -22.0000 118.000 TC -21.9163 117.985 7 2 269
1948069S15125 1948 21 SI WA NOT_NAMED 1948-03-11 09:00:00 TS -21.9412 117.860 main 0 0 P________PP___ SH161948 -21.9575 117.850 -1 -21.9575 117.850 TC -21.9087 117.879 7 3 286
1948069S15125 1948 21 SI WA NOT_NAMED 1948-03-11 11:00:00 TS -21.9087 117.767 main 0 0 P________PO___ SH161948 -21.9131 117.750 -1 -21.9131 117.750 TC -21.9000 117.800 7 3 288
1948069S15125 1948 21 SI WA NOT_NAMED 1948-03-11 12:00:00 TS -21.8995 117.721 main 0 0 O________OP___ jtwc_sh SH161948 -21.9000 117.700 -1 -21.9000 117.700 TC -21.8988 117.753 7 3 268
1948069S15125 1948 21 SI WA NOT_NAMED 1948-03-11 15:00:00 TS -21.9159 117.567 main 0 0 P________PP___ SH161948 -21.9225 117.550 -1 -21.9225 117.550 TC -21.9092 117.583 7 3 259
1948069S15125 1948 21 SI WA NOT_NAMED 1948-03-11 18:00:00 TS -21.9616 117.388 main 0 0 O________OP___ jtwc_sh SH161948 -22.0000 117.400 -1 -22.0000 117.400 TC -21.9361 117.380 7 4 261
1948069S15125 1948 21 SI WA NOT_NAMED 1948-03-11 21:00:00 NR -21.9729 117.155 main 0 0 __________P___ SH161948 -1 TC -21.9729 117.155 7 4 264
1948069S15125 1948 21 SI WA NOT_NAMED 1948-03-11 23:00:00 NR -22.0000 117.000 main 0 __________O___ SH161948 -1 TC -22.0000 117.000 7 4 259

IBTrACS Databaseについて

本データベースは、米国NOAAが公開する1842年以降の世界の熱帯低気圧のベストトラックデータアーカイブInternational Best Track Archive for Climate Stewardship (IBTrACS)を、ウェブで閲覧しやすい形式に変換したものです。

最終更新日:2021-11-26